createdAt,value
2019-03-13T00:00:07.587Z,3.80
2019-03-13T00:02:40.562Z,3.90
2019-03-13T00:05:11.139Z,4.00
2019-03-13T00:07:41.576Z,3.90
2019-03-13T00:10:15.333Z,3.80
2019-03-13T00:12:45.737Z,3.80
2019-03-13T00:15:17.355Z,3.80
2019-03-13T00:17:47.673Z,4.00
2019-03-13T00:20:17.988Z,4.00
2019-03-13T00:22:48.333Z,3.90
2019-03-13T00:25:18.644Z,3.90
2019-03-13T00:27:49.039Z,4.00
2019-03-13T00:30:19.355Z,4.00
2019-03-13T00:32:49.708Z,3.90
2019-03-13T00:35:20.011Z,3.90
2019-03-13T00:37:50.360Z,4.00
2019-03-13T00:40:20.695Z,4.00
2019-03-13T00:42:51.021Z,4.10
2019-03-13T00:45:21.321Z,4.20
2019-03-13T00:47:51.643Z,4.10
2019-03-13T00:50:26.655Z,4.10
2019-03-13T00:52:57.041Z,4.20
2019-03-13T00:55:27.341Z,4.10
2019-03-13T00:57:57.697Z,4.20
2019-03-13T01:00:58.998Z,4.00
2019-03-13T01:03:48.259Z,4.10
2019-03-13T01:06:22.416Z,4.30
2019-03-13T01:08:52.761Z,4.20
2019-03-13T01:11:23.075Z,4.20
2019-03-13T01:13:53.415Z,4.10
2019-03-13T01:16:23.734Z,4.20
2019-03-13T01:18:54.052Z,4.40
2019-03-13T01:21:24.367Z,4.30
2019-03-13T01:23:55.712Z,4.20
2019-03-13T01:26:26.029Z,4.10
2019-03-13T01:28:56.361Z,4.20
2019-03-13T01:31:48.388Z,4.30
2019-03-13T01:34:40.740Z,4.20
2019-03-13T01:37:11.069Z,4.30
2019-03-13T01:39:41.416Z,4.10
2019-03-13T01:42:11.749Z,4.20
2019-03-13T01:44:42.137Z,4.10
2019-03-13T01:47:12.443Z,4.20
2019-03-13T01:49:42.806Z,4.10
2019-03-13T01:52:13.102Z,4.20
2019-03-13T01:54:43.457Z,4.30
2019-03-13T01:57:13.822Z,4.30
2019-03-13T01:59:44.187Z,4.30
2019-03-13T02:02:14.469Z,4.30
2019-03-13T02:04:44.839Z,4.30
2019-03-13T02:07:15.157Z,4.30
2019-03-13T02:09:45.478Z,4.30
2019-03-13T02:12:15.851Z,4.50
2019-03-13T02:14:46.191Z,4.40
2019-03-13T02:17:16.489Z,4.30
2019-03-13T02:19:49.710Z,4.30
2019-03-13T02:22:18.741Z,4.40
2019-03-13T02:24:49.098Z,4.40
2019-03-13T02:27:19.388Z,4.40
2019-03-13T02:29:49.713Z,4.50
2019-03-13T02:32:20.064Z,4.50
2019-03-13T02:34:50.422Z,4.60
2019-03-13T02:37:20.831Z,4.70
2019-03-13T02:39:51.204Z,4.60
2019-03-13T02:42:21.517Z,4.60
2019-03-13T02:44:51.852Z,4.60
2019-03-13T02:47:22.145Z,4.50
2019-03-13T02:49:52.502Z,4.60
2019-03-13T02:52:22.832Z,4.60
2019-03-13T02:54:53.156Z,4.70
2019-03-13T02:57:23.448Z,4.60
2019-03-13T02:59:53.814Z,4.60
2019-03-13T03:02:38.077Z,4.60
2019-03-13T03:05:08.520Z,4.60
2019-03-13T03:07:38.897Z,4.60
2019-03-13T03:10:10.292Z,4.60
2019-03-13T03:12:40.615Z,4.70
2019-03-13T03:15:15.939Z,4.70
2019-03-13T03:17:46.290Z,4.80
2019-03-13T03:20:20.196Z,4.80
2019-03-13T03:22:50.494Z,4.80
2019-03-13T03:25:21.017Z,4.80
2019-03-13T03:27:51.338Z,4.80
2019-03-13T03:30:22.616Z,4.90
2019-03-13T03:32:53.228Z,4.90
2019-03-13T03:35:23.555Z,4.90
2019-03-13T03:37:54.099Z,4.90
2019-03-13T03:40:24.543Z,4.90
2019-03-13T03:42:54.851Z,5.00
2019-03-13T03:45:25.182Z,4.90
2019-03-13T03:47:55.487Z,4.90
2019-03-13T03:50:26.908Z,4.90
2019-03-13T03:52:57.253Z,5.00
2019-03-13T03:55:27.600Z,5.10
2019-03-13T03:57:57.922Z,5.10
2019-03-13T04:00:28.284Z,5.00
2019-03-13T04:02:58.635Z,5.10
2019-03-13T04:05:29.085Z,5.20
2019-03-13T04:07:59.397Z,5.20
2019-03-13T04:10:29.761Z,5.10
2019-03-13T04:13:00.162Z,5.30
2019-03-13T04:15:30.521Z,5.40
2019-03-13T04:18:00.811Z,5.40
2019-03-13T04:20:31.171Z,5.40
2019-03-13T04:23:01.536Z,5.40
2019-03-13T04:25:35.891Z,5.50
2019-03-13T04:28:06.889Z,5.50
2019-03-13T04:30:37.383Z,5.40
2019-03-13T04:33:07.697Z,5.40
2019-03-13T04:35:38.091Z,5.30
2019-03-13T04:38:08.409Z,5.30
2019-03-13T04:40:38.746Z,5.30
2019-03-13T04:43:09.067Z,5.30
2019-03-13T04:45:39.725Z,5.30
2019-03-13T04:48:10.075Z,5.20
2019-03-13T04:50:40.455Z,5.20
2019-03-13T04:53:10.747Z,5.10
2019-03-13T04:55:41.099Z,5.10
2019-03-13T04:58:11.411Z,5.10
2019-03-13T05:00:41.728Z,5.10
2019-03-13T05:03:12.054Z,5.10
2019-03-13T05:05:43.255Z,5.00
2019-03-13T05:08:49.839Z,5.00
2019-03-13T05:11:20.160Z,4.90
2019-03-13T05:13:50.490Z,4.90
2019-03-13T05:16:20.901Z,4.80
2019-03-13T05:18:51.281Z,4.80
2019-03-13T05:21:21.634Z,4.70
2019-03-13T05:23:52.031Z,4.60
2019-03-13T05:26:22.448Z,4.60
2019-03-13T05:28:52.797Z,4.60
2019-03-13T05:31:23.169Z,4.50
2019-03-13T05:33:53.466Z,4.40
2019-03-13T05:36:23.864Z,4.30
2019-03-13T05:38:54.180Z,4.30
2019-03-13T05:41:24.508Z,4.20
2019-03-13T05:43:54.879Z,4.20
2019-03-13T05:46:25.227Z,4.20
2019-03-13T05:48:56.478Z,4.10
2019-03-13T05:51:26.839Z,4.00
2019-03-13T05:53:57.133Z,4.00
2019-03-13T05:56:27.490Z,4.00
2019-03-13T05:58:57.806Z,4.00
2019-03-13T06:01:28.214Z,4.00
2019-03-13T06:03:58.656Z,4.00
2019-03-13T06:06:28.987Z,4.00
2019-03-13T06:08:59.282Z,3.90
2019-03-13T06:11:29.628Z,3.90
2019-03-13T06:13:59.945Z,3.90
2019-03-13T06:16:30.336Z,3.80
2019-03-13T06:19:00.638Z,3.90
2019-03-13T06:21:31.044Z,3.90
2019-03-13T06:24:01.415Z,3.90
2019-03-13T06:26:31.780Z,3.80
2019-03-13T06:29:02.535Z,3.80
2019-03-13T06:31:32.932Z,3.80
2019-03-13T06:34:03.239Z,3.90
2019-03-13T06:36:33.611Z,3.80
2019-03-13T06:39:06.852Z,3.80
2019-03-13T06:41:37.207Z,3.90
2019-03-13T06:44:07.572Z,3.90
2019-03-13T06:46:37.906Z,3.90
2019-03-13T06:49:08.234Z,3.90
2019-03-13T06:51:38.591Z,3.80
2019-03-13T06:54:08.894Z,3.90
2019-03-13T06:56:39.400Z,3.90
2019-03-13T06:59:23.371Z,3.90
2019-03-13T07:02:03.478Z,4.00
2019-03-13T07:04:51.478Z,4.00
2019-03-13T07:07:30.918Z,4.10
2019-03-13T07:10:23.269Z,4.00
2019-03-13T07:13:21.812Z,4.10
2019-03-13T07:16:00.881Z,4.10
2019-03-13T07:18:45.432Z,4.10
2019-03-13T07:21:27.793Z,4.20
2019-03-13T07:24:26.140Z,4.20
2019-03-13T07:27:09.936Z,4.30
2019-03-13T07:30:14.239Z,4.40
2019-03-13T07:33:18.690Z,4.50
2019-03-13T07:36:07.952Z,4.40
2019-03-13T07:39:03.356Z,4.50
2019-03-13T07:41:54.080Z,4.60
2019-03-13T07:44:35.294Z,4.60
2019-03-13T07:47:12.722Z,4.70
2019-03-13T07:49:56.611Z,4.70
2019-03-13T07:52:55.036Z,4.80
2019-03-13T07:55:50.399Z,4.80
2019-03-13T07:58:48.500Z,4.90
2019-03-13T08:01:22.821Z,4.80
2019-03-13T08:04:24.214Z,4.90
2019-03-13T08:07:04.290Z,5.00
2019-03-13T08:09:50.234Z,5.10
2019-03-13T08:12:48.317Z,5.00
2019-03-13T08:15:33.691Z,5.10
2019-03-13T08:18:15.469Z,5.20
2019-03-13T08:21:10.492Z,5.30
2019-03-13T08:23:58.150Z,5.30
2019-03-13T08:26:50.161Z,5.50
2019-03-13T08:29:52.581Z,5.40
2019-03-13T08:32:33.530Z,5.70
2019-03-13T08:35:31.629Z,5.70
2019-03-13T08:38:20.928Z,5.80
2019-03-13T08:41:10.181Z,5.90
2019-03-13T08:44:01.583Z,6.10
2019-03-13T08:46:44.302Z,6.10
2019-03-13T08:49:33.586Z,6.20
2019-03-13T08:52:37.856Z,6.20
2019-03-13T08:55:32.915Z,6.30
2019-03-13T08:58:31.088Z,6.20
2019-03-13T09:01:12.582Z,6.50
2019-03-13T09:04:07.898Z,6.30
2019-03-13T09:06:55.549Z,6.20
2019-03-13T09:09:42.229Z,6.20
2019-03-13T09:12:22.718Z,6.10
2019-03-13T09:15:10.479Z,5.90
2019-03-13T09:17:59.794Z,5.80
2019-03-13T09:20:41.116Z,6.10
2019-03-13T09:23:33.370Z,6.50
2019-03-13T09:26:32.833Z,6.90
2019-03-13T09:29:24.983Z,6.60
2019-03-13T09:32:05.498Z,6.90
2019-03-13T09:34:43.825Z,7.10
2019-03-13T09:37:36.160Z,7.20
2019-03-13T09:40:35.022Z,6.90
2019-03-13T09:43:12.614Z,6.60
2019-03-13T09:45:51.879Z,6.50
2019-03-13T09:48:39.836Z,6.40
2019-03-13T09:51:20.445Z,6.40
2019-03-13T09:54:09.696Z,6.30
2019-03-13T09:56:57.755Z,6.40
2019-03-13T09:59:52.808Z,6.20
2019-03-13T10:02:34.514Z,6.10
2019-03-13T10:05:26.952Z,6.00
2019-03-13T10:08:16.221Z,6.00
2019-03-13T10:11:14.678Z,6.00
2019-03-13T10:13:51.077Z,6.10
2019-03-13T10:16:55.256Z,6.10
2019-03-13T10:19:35.484Z,6.00
2019-03-13T10:22:24.765Z,6.10
2019-03-13T10:25:08.732Z,6.20
2019-03-13T10:27:56.380Z,6.00
2019-03-13T10:30:57.950Z,6.10
2019-03-13T10:33:35.931Z,6.20
2019-03-13T10:36:27.467Z,6.40
2019-03-13T10:39:07.367Z,6.60
2019-03-13T10:41:58.758Z,6.30
2019-03-13T10:44:43.385Z,6.30
2019-03-13T10:47:31.191Z,6.20
2019-03-13T10:50:26.306Z,6.30
2019-03-13T10:53:03.537Z,6.30
2019-03-13T10:55:55.213Z,6.30
2019-03-13T10:58:43.726Z,6.30
2019-03-13T11:01:26.914Z,6.40
2019-03-13T11:04:05.977Z,6.60
2019-03-13T11:06:54.999Z,6.50
2019-03-13T11:09:29.567Z,6.50
2019-03-13T11:12:15.696Z,6.50
2019-03-13T11:15:17.179Z,6.50
2019-03-13T11:18:09.526Z,6.30
2019-03-13T11:20:51.169Z,6.50
2019-03-13T11:23:49.612Z,6.60
2019-03-13T11:26:39.290Z,6.60
2019-03-13T11:29:21.837Z,6.70
2019-03-13T11:32:06.746Z,6.70
2019-03-13T11:34:52.784Z,6.70
2019-03-13T11:37:36.647Z,6.50
2019-03-13T11:40:25.655Z,6.50
2019-03-13T11:43:17.428Z,6.50
2019-03-13T11:46:05.136Z,6.50
2019-03-13T11:48:54.418Z,6.50
2019-03-13T11:51:44.705Z,6.40
2019-03-13T11:54:27.143Z,6.70
2019-03-13T11:57:05.316Z,6.80
2019-03-13T11:59:53.170Z,6.60
2019-03-13T12:02:57.344Z,6.70
2019-03-13T12:05:45.240Z,6.80
2019-03-13T12:08:23.114Z,6.80
2019-03-13T12:11:21.156Z,6.90
2019-03-13T12:14:10.950Z,6.90
2019-03-13T12:16:48.676Z,6.80
2019-03-13T12:19:41.011Z,6.80
2019-03-13T12:22:45.220Z,6.70
2019-03-13T12:25:35.339Z,6.60
2019-03-13T12:28:27.634Z,6.70
2019-03-13T12:31:34.972Z,6.80
2019-03-13T12:34:29.751Z,6.70
2019-03-13T12:37:19.038Z,6.80
2019-03-13T12:40:10.690Z,6.60
2019-03-13T12:43:10.192Z,6.90
2019-03-13T12:46:08.351Z,7.30
2019-03-13T12:48:56.302Z,7.40
2019-03-13T12:51:37.436Z,7.60
2019-03-13T12:54:35.714Z,7.60
2019-03-13T12:57:40.264Z,7.60
2019-03-13T13:00:19.685Z,7.80
2019-03-13T13:03:00.108Z,7.60
2019-03-13T13:05:51.299Z,7.80
2019-03-13T13:08:46.431Z,7.80
2019-03-13T13:11:38.392Z,7.70
2019-03-13T13:14:18.374Z,7.90
2019-03-13T13:17:07.638Z,8.00
2019-03-13T13:19:37.988Z,8.00
2019-03-13T13:22:08.320Z,8.40
2019-03-13T13:24:38.768Z,8.40
2019-03-13T13:27:09.102Z,8.30
2019-03-13T13:29:39.500Z,8.70
2019-03-13T13:32:09.850Z,8.60
2019-03-13T13:34:40.204Z,8.40
2019-03-13T13:37:10.528Z,8.20
2019-03-13T13:39:40.896Z,8.00
2019-03-13T13:42:11.262Z,8.30
2019-03-13T13:44:41.628Z,8.60
2019-03-13T13:47:11.938Z,8.40
2019-03-13T13:49:42.261Z,8.10
2019-03-13T13:52:12.557Z,7.90
2019-03-13T13:54:42.922Z,7.80
2019-03-13T13:57:13.272Z,7.90
2019-03-13T13:59:43.645Z,7.90
2019-03-13T14:02:13.963Z,7.80
2019-03-13T14:04:44.320Z,7.70
2019-03-13T14:07:14.654Z,7.80
2019-03-13T14:09:45.014Z,7.60
2019-03-13T14:12:15.321Z,7.60
2019-03-13T14:14:45.666Z,7.50
2019-03-13T14:17:16.015Z,7.50
2019-03-13T14:19:46.388Z,7.50
2019-03-13T14:22:16.677Z,7.40
2019-03-13T14:24:47.014Z,7.30
2019-03-13T14:27:17.365Z,7.30
2019-03-13T14:29:47.686Z,7.10
2019-03-13T14:32:18.140Z,7.00
2019-03-13T14:34:48.648Z,7.00
2019-03-13T14:37:18.983Z,7.10
2019-03-13T14:39:49.296Z,7.10
2019-03-13T14:42:19.627Z,7.20
2019-03-13T14:44:49.932Z,7.30
2019-03-13T14:47:20.284Z,7.30
2019-03-13T14:49:50.594Z,7.30
2019-03-13T14:52:20.946Z,7.30
2019-03-13T14:54:51.259Z,7.20
2019-03-13T14:57:21.643Z,7.00
2019-03-13T14:59:51.967Z,7.10
2019-03-13T15:02:22.281Z,7.20
2019-03-13T15:04:52.619Z,7.00
2019-03-13T15:07:23.009Z,6.90
2019-03-13T15:09:53.380Z,7.00
2019-03-13T15:12:23.812Z,7.10
2019-03-13T15:14:54.111Z,7.10
2019-03-13T15:17:24.492Z,7.10
2019-03-13T15:19:54.816Z,7.00
2019-03-13T15:22:25.188Z,7.00
2019-03-13T15:24:55.568Z,6.80
2019-03-13T15:27:25.967Z,6.90
2019-03-13T15:29:56.318Z,7.00
2019-03-13T15:32:26.710Z,6.80
2019-03-13T15:34:57.032Z,6.80
2019-03-13T15:37:27.466Z,6.80
2019-03-13T15:39:58.732Z,6.80
2019-03-13T15:42:29.088Z,6.90
2019-03-13T15:44:59.498Z,6.90
2019-03-13T15:47:29.893Z,6.80
2019-03-13T15:50:00.423Z,6.70
2019-03-13T15:52:30.800Z,6.90
2019-03-13T15:55:01.093Z,6.90
2019-03-13T15:57:31.485Z,6.80
2019-03-13T16:00:01.819Z,6.80
2019-03-13T16:02:33.244Z,6.90
2019-03-13T16:05:03.730Z,6.80
2019-03-13T16:07:34.073Z,6.80
2019-03-13T16:10:04.571Z,6.70
2019-03-13T16:12:34.973Z,6.60
2019-03-13T16:15:06.048Z,6.60
2019-03-13T16:17:36.534Z,6.70
2019-03-13T16:20:07.370Z,6.40
2019-03-13T16:22:37.914Z,6.60
2019-03-13T16:25:08.405Z,6.50
2019-03-13T16:27:38.840Z,6.60
2019-03-13T16:30:12.612Z,6.60
2019-03-13T16:32:45.104Z,6.50
2019-03-13T16:35:16.379Z,6.50
2019-03-13T16:37:46.815Z,6.60
2019-03-13T16:40:17.189Z,6.40
2019-03-13T16:42:47.509Z,6.40
2019-03-13T16:45:18.280Z,6.30
2019-03-13T16:47:48.768Z,6.20
2019-03-13T16:50:20.340Z,6.30
2019-03-13T16:52:50.709Z,6.30
2019-03-13T16:55:22.227Z,6.40
2019-03-13T16:57:52.648Z,6.30
2019-03-13T17:00:23.942Z,6.30
2019-03-13T17:02:54.476Z,6.20
2019-03-13T17:05:25.369Z,6.30
2019-03-13T17:07:55.960Z,6.30
2019-03-13T17:10:26.297Z,6.30
2019-03-13T17:12:57.064Z,6.30
2019-03-13T17:15:27.789Z,6.30
2019-03-13T17:17:58.182Z,6.20
2019-03-13T17:20:28.576Z,6.20
2019-03-13T17:22:59.021Z,6.20
2019-03-13T17:25:29.257Z,6.10
2019-03-13T17:27:59.633Z,6.20
2019-03-13T17:30:29.975Z,6.10
2019-03-13T17:33:00.700Z,6.30
2019-03-13T17:35:31.046Z,6.10
2019-03-13T17:38:01.512Z,6.00
2019-03-13T17:40:32.955Z,6.30
2019-03-13T17:43:03.459Z,6.20
2019-03-13T17:45:33.801Z,6.20
2019-03-13T17:48:04.133Z,6.20
2019-03-13T17:50:34.581Z,6.10
2019-03-13T17:53:04.939Z,6.00
2019-03-13T17:55:36.220Z,6.00
2019-03-13T17:58:06.556Z,6.00
2019-03-13T18:00:55.122Z,6.00
2019-03-13T18:03:25.589Z,6.20
2019-03-13T18:05:55.962Z,6.20
2019-03-13T18:08:26.321Z,6.10
2019-03-13T18:10:56.635Z,6.00
2019-03-13T18:13:27.094Z,6.00
2019-03-13T18:15:57.414Z,5.90
2019-03-13T18:18:27.789Z,6.00
2019-03-13T18:20:58.165Z,6.00
2019-03-13T18:23:28.613Z,6.10
2019-03-13T18:25:59.253Z,6.00
2019-03-13T18:28:29.675Z,6.10
2019-03-13T18:31:01.972Z,6.10
2019-03-13T18:33:33.100Z,6.00
2019-03-13T18:36:03.521Z,6.00
2019-03-13T18:38:33.922Z,5.90
2019-03-13T18:41:04.456Z,5.90
2019-03-13T18:43:34.868Z,5.90
2019-03-13T18:46:05.213Z,5.90
2019-03-13T18:48:35.728Z,5.90
2019-03-13T18:51:06.051Z,5.80
2019-03-13T18:53:36.504Z,5.80
2019-03-13T18:56:06.847Z,5.90
2019-03-13T18:58:37.244Z,5.90
2019-03-13T19:01:07.672Z,6.00
2019-03-13T19:03:38.075Z,6.00
2019-03-13T19:06:08.491Z,6.00
2019-03-13T19:08:38.867Z,6.00
2019-03-13T19:11:09.230Z,5.90
2019-03-13T19:13:39.579Z,5.90
2019-03-13T19:16:09.941Z,5.90
2019-03-13T19:18:40.308Z,5.80
2019-03-13T19:21:10.673Z,5.80
2019-03-13T19:23:41.041Z,5.80
2019-03-13T19:26:11.447Z,5.90
2019-03-13T19:28:41.799Z,5.80
2019-03-13T19:31:12.132Z,5.90
2019-03-13T19:33:42.501Z,6.00
2019-03-13T19:36:12.908Z,6.00
2019-03-13T19:38:43.287Z,5.90
2019-03-13T19:41:13.627Z,5.80
2019-03-13T19:43:44.014Z,5.90
2019-03-13T19:46:14.344Z,5.80
2019-03-13T19:48:44.736Z,5.70
2019-03-13T19:51:15.068Z,5.80
2019-03-13T19:53:45.468Z,5.70
2019-03-13T19:56:15.862Z,5.70
2019-03-13T19:58:46.318Z,5.70
2019-03-13T20:01:16.742Z,5.70
2019-03-13T20:03:55.123Z,5.80
2019-03-13T20:06:19.205Z,5.80
2019-03-13T20:08:49.667Z,5.90
2019-03-13T20:11:20.013Z,5.80
2019-03-13T20:13:50.442Z,5.80
2019-03-13T20:16:20.767Z,5.80
2019-03-13T20:18:51.206Z,5.70
2019-03-13T20:21:21.619Z,5.80
2019-03-13T20:23:51.998Z,5.80
2019-03-13T20:26:22.372Z,5.90
2019-03-13T20:28:52.770Z,5.90
2019-03-13T20:31:23.093Z,5.80
2019-03-13T20:33:53.600Z,5.90
2019-03-13T20:36:23.943Z,5.70
2019-03-13T20:38:54.377Z,5.80
2019-03-13T20:41:24.839Z,5.70
2019-03-13T20:43:55.278Z,5.60
2019-03-13T20:46:25.772Z,5.60
2019-03-13T20:48:56.219Z,5.70
2019-03-13T20:51:26.580Z,5.70
2019-03-13T20:53:56.961Z,5.70
2019-03-13T20:56:27.328Z,5.70
2019-03-13T20:58:57.721Z,5.70
2019-03-13T21:01:28.139Z,5.70
2019-03-13T21:03:58.599Z,5.70
2019-03-13T21:06:28.966Z,5.80
2019-03-13T21:08:59.678Z,5.80
2019-03-13T21:11:30.146Z,5.80
2019-03-13T21:14:00.534Z,5.80
2019-03-13T21:16:32.101Z,5.80
2019-03-13T21:19:02.512Z,5.80
2019-03-13T21:21:32.844Z,5.70
2019-03-13T21:24:03.280Z,5.70
2019-03-13T21:26:33.635Z,5.80
2019-03-13T21:29:04.031Z,5.70
2019-03-13T21:31:34.345Z,5.70
2019-03-13T21:34:04.760Z,5.70
2019-03-13T21:36:35.069Z,5.70
2019-03-13T21:39:06.500Z,5.70
2019-03-13T21:41:37.103Z,5.70
2019-03-13T21:44:07.551Z,5.70
2019-03-13T21:46:37.891Z,5.70
2019-03-13T21:49:08.705Z,5.70
2019-03-13T21:51:39.181Z,5.80
2019-03-13T21:54:09.557Z,5.70
2019-03-13T21:56:39.882Z,5.80
2019-03-13T21:59:10.309Z,5.70
2019-03-13T22:01:40.732Z,5.70
2019-03-13T22:04:23.262Z,5.60
2019-03-13T22:06:43.165Z,5.60
2019-03-13T22:09:13.531Z,5.60
2019-03-13T22:11:43.923Z,5.60
2019-03-13T22:14:14.306Z,5.70
2019-03-13T22:16:44.600Z,5.70
2019-03-13T22:19:14.967Z,5.70
2019-03-13T22:21:45.284Z,5.70
2019-03-13T22:24:15.615Z,5.60
2019-03-13T22:26:46.024Z,5.70
2019-03-13T22:29:16.385Z,5.60
2019-03-13T22:31:46.735Z,5.70
2019-03-13T22:34:17.077Z,5.60
2019-03-13T22:36:47.391Z,5.60
2019-03-13T22:39:17.723Z,5.60
2019-03-13T22:41:48.049Z,5.60
2019-03-13T22:44:18.453Z,5.60
2019-03-13T22:46:50.292Z,5.60
2019-03-13T22:49:21.026Z,5.70
2019-03-13T22:51:51.351Z,5.60
2019-03-13T22:54:21.753Z,5.60
2019-03-13T22:56:52.208Z,5.60
2019-03-13T22:59:22.563Z,5.60
2019-03-13T23:01:52.876Z,5.60
2019-03-13T23:04:23.641Z,5.50
2019-03-13T23:06:53.955Z,5.60
2019-03-13T23:09:24.419Z,5.50
2019-03-13T23:11:54.762Z,5.60
2019-03-13T23:14:25.105Z,5.60
2019-03-13T23:16:55.439Z,5.60
2019-03-13T23:19:25.772Z,5.60
2019-03-13T23:21:56.194Z,5.60
2019-03-13T23:24:26.528Z,5.60
2019-03-13T23:26:56.896Z,5.60
2019-03-13T23:29:27.316Z,5.60
2019-03-13T23:31:57.640Z,5.60
2019-03-13T23:34:27.960Z,5.60
2019-03-13T23:36:58.279Z,5.50
2019-03-13T23:39:28.613Z,5.60
2019-03-13T23:41:58.934Z,5.60
2019-03-13T23:44:29.332Z,5.50
2019-03-13T23:46:59.619Z,5.60
2019-03-13T23:49:29.961Z,5.60
2019-03-13T23:52:02.724Z,5.60
2019-03-13T23:54:32.208Z,5.60
2019-03-13T23:57:02.516Z,5.60
2019-03-13T23:59:32.853Z,5.70
